sensor_id;sensor_type;location;lat;lon;timestamp;pressure;altitude;pressure_sealevel;temperature;humidity
69570;BME280;56781;42.292;23.146;2023-08-07T00:00:05;95019.78;;;15.20;100.00
69570;BME280;56781;42.292;23.146;2023-08-07T00:02:36;95026.06;;;15.24;100.00
69570;BME280;56781;42.292;23.146;2023-08-07T00:05:05;95015.63;;;15.22;100.00
69570;BME280;56781;42.292;23.146;2023-08-07T00:07:32;95011.44;;;15.25;100.00
69570;BME280;56781;42.292;23.146;2023-08-07T00:09:59;95018.28;;;15.06;100.00
69570;BME280;56781;42.292;23.146;2023-08-07T00:12:28;95037.38;;;14.89;100.00
69570;BME280;56781;42.292;23.146;2023-08-07T00:14:55;95037.38;;;14.89;100.00
69570;BME280;56781;42.292;23.146;2023-08-07T00:17:22;95032.25;;;14.72;100.00
69570;BME280;56781;42.292;23.146;2023-08-07T00:19:49;95015.16;;;14.68;100.00
69570;BME280;56781;42.292;23.146;2023-08-07T00:22:17;95022.13;;;14.69;100.00
69570;BME280;56781;42.292;23.146;2023-08-07T00:24:44;95006.06;;;14.60;100.00
69570;BME280;56781;42.292;23.146;2023-08-07T00:27:11;95014.06;;;14.69;100.00
69570;BME280;56781;42.292;23.146;2023-08-07T00:29:39;95030.00;;;14.61;100.00
69570;BME280;56781;42.292;23.146;2023-08-07T00:32:06;95017.41;;;14.53;100.00
69570;BME280;56781;42.292;23.146;2023-08-07T00:34:34;95007.09;;;14.68;100.00
69570;BME280;56781;42.292;23.146;2023-08-07T00:37:01;95018.41;;;14.73;100.00
69570;BME280;56781;42.292;23.146;2023-08-07T00:39:28;95024.34;;;14.42;100.00
69570;BME280;56781;42.292;23.146;2023-08-07T00:41:55;95002.66;;;14.14;100.00
69570;BME280;56781;42.292;23.146;2023-08-07T00:44:23;94997.88;;;14.19;100.00
69570;BME280;56781;42.292;23.146;2023-08-07T00:46:53;95025.25;;;14.34;100.00
69570;BME280;56781;42.292;23.146;2023-08-07T01:04:00;95043.03;;;14.02;100.00
69570;BME280;56781;42.292;23.146;2023-08-07T01:06:27;95027.09;;;13.96;100.00
69570;BME280;56781;42.292;23.146;2023-08-07T01:08:55;95043.34;;;14.00;100.00
69570;BME280;56781;42.292;23.146;2023-08-07T01:11:23;95056.31;;;13.86;100.00
69570;BME280;56781;42.292;23.146;2023-08-07T01:17:06;95052.69;;;13.69;100.00
69570;BME280;56781;42.292;23.146;2023-08-07T01:19:35;95063.72;;;13.89;100.00
69570;BME280;56781;42.292;23.146;2023-08-07T01:22:06;95055.72;;;14.01;100.00
69570;BME280;56781;42.292;23.146;2023-08-07T01:24:34;95060.94;;;13.97;100.00
69570;BME280;56781;42.292;23.146;2023-08-07T01:30:09;95061.31;;;14.08;100.00
69570;BME280;56781;42.292;23.146;2023-08-07T01:35:34;95059.84;;;13.65;100.00
69570;BME280;56781;42.292;23.146;2023-08-07T01:38:03;95052.00;;;13.60;100.00
69570;BME280;56781;42.292;23.146;2023-08-07T01:40:31;95057.56;;;13.55;100.00
69570;BME280;56781;42.292;23.146;2023-08-07T01:42:58;95058.66;;;13.54;100.00
69570;BME280;56781;42.292;23.146;2023-08-07T01:45:27;95059.09;;;13.44;100.00
69570;BME280;56781;42.292;23.146;2023-08-07T01:47:55;95077.91;;;13.44;100.00
69570;BME280;56781;42.292;23.146;2023-08-07T01:50:23;95065.69;;;13.25;100.00
69570;BME280;56781;42.292;23.146;2023-08-07T01:52:52;95076.13;;;13.27;100.00
69570;BME280;56781;42.292;23.146;2023-08-07T01:55:20;95080.78;;;13.39;100.00
69570;BME280;56781;42.292;23.146;2023-08-07T01:57:47;95087.63;;;13.36;100.00
69570;BME280;56781;42.292;23.146;2023-08-07T02:00:15;95069.69;;;13.40;100.00
69570;BME280;56781;42.292;23.146;2023-08-07T02:02:42;95074.03;;;13.33;100.00
69570;BME280;56781;42.292;23.146;2023-08-07T02:05:11;95055.78;;;13.17;100.00
69570;BME280;56781;42.292;23.146;2023-08-07T02:07:38;95091.03;;;13.16;100.00
69570;BME280;56781;42.292;23.146;2023-08-07T02:10:06;95094.50;;;13.16;100.00
69570;BME280;56781;42.292;23.146;2023-08-07T02:12:33;95071.50;;;13.06;100.00
69570;BME280;56781;42.292;23.146;2023-08-07T02:15:00;95092.84;;;13.33;100.00
69570;BME280;56781;42.292;23.146;2023-08-07T02:17:28;95081.44;;;13.36;100.00
69570;BME280;56781;42.292;23.146;2023-08-07T02:19:58;95091.78;;;13.46;100.00
69570;BME280;56781;42.292;23.146;2023-08-07T02:22:25;95097.91;;;13.55;100.00
69570;BME280;56781;42.292;23.146;2023-08-07T02:24:53;95099.56;;;13.18;100.00
69570;BME280;56781;42.292;23.146;2023-08-07T02:27:20;95098.28;;;12.94;100.00
69570;BME280;56781;42.292;23.146;2023-08-07T02:29:47;95102.88;;;12.94;100.00
69570;BME280;56781;42.292;23.146;2023-08-07T02:32:14;95070.78;;;12.68;100.00
69570;BME280;56781;42.292;23.146;2023-08-07T02:34:41;95082.13;;;12.73;100.00
69570;BME280;56781;42.292;23.146;2023-08-07T02:37:08;95079.81;;;12.63;100.00
69570;BME280;56781;42.292;23.146;2023-08-07T02:39:35;95096.81;;;12.76;100.00
69570;BME280;56781;42.292;23.146;2023-08-07T02:42:03;95069.78;;;12.72;100.00
69570;BME280;56781;42.292;23.146;2023-08-07T02:44:30;95083.97;;;12.81;100.00
69570;BME280;56781;42.292;23.146;2023-08-07T02:46:57;95068.41;;;12.66;100.00
69570;BME280;56781;42.292;23.146;2023-08-07T02:49:24;95095.63;;;12.85;100.00
69570;BME280;56781;42.292;23.146;2023-08-07T02:51:51;95105.59;;;12.85;100.00
69570;BME280;56781;42.292;23.146;2023-08-07T02:54:19;95108.94;;;12.82;100.00
69570;BME280;56781;42.292;23.146;2023-08-07T02:56:46;95120.19;;;12.75;100.00
69570;BME280;56781;42.292;23.146;2023-08-07T02:59:13;95140.56;;;12.76;100.00
69570;BME280;56781;42.292;23.146;2023-08-07T03:01:40;95138.31;;;12.87;100.00
69570;BME280;56781;42.292;23.146;2023-08-07T03:04:08;95148.72;;;12.89;100.00
69570;BME280;56781;42.292;23.146;2023-08-07T03:06:35;95135.22;;;12.97;100.00
69570;BME280;56781;42.292;23.146;2023-08-07T03:09:02;95140.25;;;13.07;100.00
69570;BME280;56781;42.292;23.146;2023-08-07T03:11:29;95134.88;;;13.07;100.00
69570;BME280;56781;42.292;23.146;2023-08-07T03:13:56;95138.44;;;13.20;100.00
69570;BME280;56781;42.292;23.146;2023-08-07T03:16:23;95144.25;;;13.31;100.00
69570;BME280;56781;42.292;23.146;2023-08-07T03:18:51;95144.34;;;13.14;100.00
69570;BME280;56781;42.292;23.146;2023-08-07T03:21:18;95140.41;;;13.11;100.00
69570;BME280;56781;42.292;23.146;2023-08-07T03:23:45;95158.28;;;13.37;100.00
69570;BME280;56781;42.292;23.146;2023-08-07T03:26:13;95146.75;;;13.36;100.00
69570;BME280;56781;42.292;23.146;2023-08-07T03:28:43;95156.13;;;13.21;100.00
69570;BME280;56781;42.292;23.146;2023-08-07T03:31:13;95160.84;;;13.24;100.00
69570;BME280;56781;42.292;23.146;2023-08-07T03:33:40;95140.16;;;13.25;100.00
69570;BME280;56781;42.292;23.146;2023-08-07T03:36:07;95153.69;;;13.37;100.00
69570;BME280;56781;42.292;23.146;2023-08-07T03:38:36;95163.41;;;13.50;100.00
69570;BME280;56781;42.292;23.146;2023-08-07T03:41:03;95160.25;;;13.48;100.00
69570;BME280;56781;42.292;23.146;2023-08-07T03:43:30;95154.34;;;13.34;100.00
69570;BME280;56781;42.292;23.146;2023-08-07T03:45:57;95155.78;;;13.32;100.00
69570;BME280;56781;42.292;23.146;2023-08-07T03:48:28;95127.50;;;12.96;100.00
69570;BME280;56781;42.292;23.146;2023-08-07T03:51:06;95162.16;;;13.18;100.00
69570;BME280;56781;42.292;23.146;2023-08-07T03:53:37;95145.50;;;13.04;100.00
69570;BME280;56781;42.292;23.146;2023-08-07T03:56:04;95171.59;;;13.03;100.00
69570;BME280;56781;42.292;23.146;2023-08-07T03:58:31;95169.31;;;13.14;100.00
69570;BME280;56781;42.292;23.146;2023-08-07T04:00:59;95147.72;;;13.02;100.00
69570;BME280;56781;42.292;23.146;2023-08-07T04:03:26;95172.44;;;13.16;100.00
69570;BME280;56781;42.292;23.146;2023-08-07T04:05:54;95159.53;;;13.09;100.00
69570;BME280;56781;42.292;23.146;2023-08-07T04:08:22;95152.53;;;13.17;100.00
69570;BME280;56781;42.292;23.146;2023-08-07T04:11:00;95154.44;;;13.17;100.00
69570;BME280;56781;42.292;23.146;2023-08-07T04:13:28;95154.81;;;13.06;100.00
69570;BME280;56781;42.292;23.146;2023-08-07T04:15:55;95177.97;;;13.28;100.00
69570;BME280;56781;42.292;23.146;2023-08-07T04:18:23;95155.19;;;13.26;100.00
69570;BME280;56781;42.292;23.146;2023-08-07T04:20:54;95169.09;;;13.28;100.00
69570;BME280;56781;42.292;23.146;2023-08-07T04:23:22;95169.31;;;13.14;100.00
69570;BME280;56781;42.292;23.146;2023-08-07T04:25:51;95164.19;;;13.30;100.00
69570;BME280;56781;42.292;23.146;2023-08-07T04:28:19;95161.16;;;13.32;100.00
69570;BME280;56781;42.292;23.146;2023-08-07T04:30:50;95196.75;;;13.58;100.00
69570;BME280;56781;42.292;23.146;2023-08-07T04:33:19;95165.84;;;13.64;100.00
69570;BME280;56781;42.292;23.146;2023-08-07T04:35:47;95184.41;;;13.99;100.00
69570;BME280;56781;42.292;23.146;2023-08-07T04:38:15;95184.06;;;14.22;100.00
69570;BME280;56781;42.292;23.146;2023-08-07T04:40:46;95181.75;;;14.32;100.00
69570;BME280;56781;42.292;23.146;2023-08-07T04:43:14;95182.75;;;14.61;100.00
69570;BME280;56781;42.292;23.146;2023-08-07T04:45:41;95203.78;;;14.80;100.00
69570;BME280;56781;42.292;23.146;2023-08-07T04:48:08;95200.06;;;14.72;100.00
69570;BME280;56781;42.292;23.146;2023-08-07T04:50:36;95198.81;;;14.70;100.00
69570;BME280;56781;42.292;23.146;2023-08-07T04:53:06;95218.16;;;14.84;100.00
69570;BME280;56781;42.292;23.146;2023-08-07T04:55:34;95190.09;;;14.85;100.00
69570;BME280;56781;42.292;23.146;2023-08-07T04:58:01;95207.38;;;14.84;100.00
69570;BME280;56781;42.292;23.146;2023-08-07T05:00:29;95186.69;;;14.63;100.00
69570;BME280;56781;42.292;23.146;2023-08-07T05:02:56;95188.72;;;14.67;100.00
69570;BME280;56781;42.292;23.146;2023-08-07T05:05:24;95200.00;;;14.93;100.00
69570;BME280;56781;42.292;23.146;2023-08-07T05:07:51;95171.25;;;14.85;100.00
69570;BME280;56781;42.292;23.146;2023-08-07T05:10:19;95184.72;;;15.10;100.00
69570;BME280;56781;42.292;23.146;2023-08-07T05:12:46;95165.75;;;15.18;100.00
69570;BME280;56781;42.292;23.146;2023-08-07T05:15:14;95168.22;;;15.23;100.00
69570;BME280;56781;42.292;23.146;2023-08-07T05:17:41;95196.97;;;15.56;100.00
69570;BME280;56781;42.292;23.146;2023-08-07T05:20:09;95196.16;;;15.80;100.00
69570;BME280;56781;42.292;23.146;2023-08-07T05:22:37;95190.00;;;16.08;100.00
69570;BME280;56781;42.292;23.146;2023-08-07T05:25:04;95174.06;;;16.47;100.00
69570;BME280;56781;42.292;23.146;2023-08-07T05:27:32;95159.56;;;16.67;100.00
69570;BME280;56781;42.292;23.146;2023-08-07T05:29:59;95153.31;;;16.95;100.00
69570;BME280;56781;42.292;23.146;2023-08-07T05:32:27;95170.75;;;17.13;100.00
69570;BME280;56781;42.292;23.146;2023-08-07T05:34:55;95182.34;;;17.45;100.00
69570;BME280;56781;42.292;23.146;2023-08-07T05:37:22;95177.06;;;17.53;100.00
69570;BME280;56781;42.292;23.146;2023-08-07T05:39:49;95177.09;;;17.72;100.00
69570;BME280;56781;42.292;23.146;2023-08-07T05:42:16;95188.94;;;17.99;100.00
69570;BME280;56781;42.292;23.146;2023-08-07T05:44:43;95187.66;;;18.12;100.00
69570;BME280;56781;42.292;23.146;2023-08-07T05:47:10;95180.66;;;18.31;98.95
69570;BME280;56781;42.292;23.146;2023-08-07T05:49:37;95192.25;;;18.51;98.10
69570;BME280;56781;42.292;23.146;2023-08-07T05:52:05;95152.38;;;18.71;97.98
69570;BME280;56781;42.292;23.146;2023-08-07T05:54:32;95184.50;;;18.92;95.79
69570;BME280;56781;42.292;23.146;2023-08-07T05:57:00;95173.72;;;18.95;95.34
69570;BME280;56781;42.292;23.146;2023-08-07T05:59:27;95180.34;;;19.21;93.54
69570;BME280;56781;42.292;23.146;2023-08-07T06:01:54;95173.06;;;19.52;89.64
69570;BME280;56781;42.292;23.146;2023-08-07T06:04:25;95137.19;;;19.39;87.70
69570;BME280;56781;42.292;23.146;2023-08-07T06:06:52;95152.88;;;19.49;90.55
69570;BME280;56781;42.292;23.146;2023-08-07T06:09:19;95153.41;;;19.88;85.82
69570;BME280;56781;42.292;23.146;2023-08-07T06:11:48;95161.88;;;20.47;86.40
69570;BME280;56781;42.292;23.146;2023-08-07T06:14:15;95165.72;;;20.43;84.66
69570;BME280;56781;42.292;23.146;2023-08-07T06:16:43;95159.63;;;20.53;86.45
69570;BME280;56781;42.292;23.146;2023-08-07T06:19:10;95156.94;;;20.97;83.41
69570;BME280;56781;42.292;23.146;2023-08-07T06:21:56;95164.00;;;21.06;81.19
69570;BME280;56781;42.292;23.146;2023-08-07T06:24:24;95149.44;;;21.32;78.81
69570;BME280;56781;42.292;23.146;2023-08-07T06:26:52;95145.78;;;21.61;78.17
69570;BME280;56781;42.292;23.146;2023-08-07T06:29:19;95137.25;;;21.66;76.49
69570;BME280;56781;42.292;23.146;2023-08-07T06:31:47;95161.91;;;21.88;76.95
69570;BME280;56781;42.292;23.146;2023-08-07T06:34:14;95146.69;;;21.87;77.10
69570;BME280;56781;42.292;23.146;2023-08-07T06:36:41;95146.78;;;22.01;78.17
69570;BME280;56781;42.292;23.146;2023-08-07T06:39:08;95164.91;;;22.52;76.29
69570;BME280;56781;42.292;23.146;2023-08-07T06:41:37;95155.19;;;22.62;74.67
69570;BME280;56781;42.292;23.146;2023-08-07T06:44:04;95161.81;;;22.65;75.04
69570;BME280;56781;42.292;23.146;2023-08-07T06:46:31;95169.66;;;22.88;73.82
69570;BME280;56781;42.292;23.146;2023-08-07T06:48:58;95146.56;;;22.39;68.02
69570;BME280;56781;42.292;23.146;2023-08-07T06:51:25;95138.72;;;22.30;66.92
69570;BME280;56781;42.292;23.146;2023-08-07T06:53:52;95155.50;;;22.35;68.65
69570;BME280;56781;42.292;23.146;2023-08-07T06:56:20;95162.59;;;22.62;66.87
69570;BME280;56781;42.292;23.146;2023-08-07T06:58:47;95147.75;;;22.45;68.05
69570;BME280;56781;42.292;23.146;2023-08-07T07:01:14;95166.53;;;22.82;67.12
69570;BME280;56781;42.292;23.146;2023-08-07T07:03:41;95164.19;;;22.77;69.44
69570;BME280;56781;42.292;23.146;2023-08-07T07:06:09;95179.41;;;22.82;67.63
69570;BME280;56781;42.292;23.146;2023-08-07T07:08:36;95184.47;;;22.76;67.42
69570;BME280;56781;42.292;23.146;2023-08-07T07:11:03;95176.59;;;22.49;68.49
69570;BME280;56781;42.292;23.146;2023-08-07T07:13:31;95189.91;;;22.76;67.61
69570;BME280;56781;42.292;23.146;2023-08-07T07:15:58;95186.75;;;22.63;68.61
69570;BME280;56781;42.292;23.146;2023-08-07T07:18:25;95182.56;;;23.01;66.15
69570;BME280;56781;42.292;23.146;2023-08-07T07:20:57;95154.09;;;23.10;64.63
69570;BME280;56781;42.292;23.146;2023-08-07T07:23:25;95152.16;;;23.46;65.47
69570;BME280;56781;42.292;23.146;2023-08-07T07:25:52;95174.38;;;23.44;65.20
69570;BME280;56781;42.292;23.146;2023-08-07T07:28:20;95167.34;;;23.83;68.11
69570;BME280;56781;42.292;23.146;2023-08-07T07:30:47;95167.69;;;23.99;62.35
69570;BME280;56781;42.292;23.146;2023-08-07T07:33:16;95153.22;;;24.13;62.41
69570;BME280;56781;42.292;23.146;2023-08-07T07:35:43;95152.28;;;24.45;63.29
69570;BME280;56781;42.292;23.146;2023-08-07T07:38:11;95147.97;;;24.54;59.86
69570;BME280;56781;42.292;23.146;2023-08-07T07:40:38;95151.34;;;24.76;61.06
69570;BME280;56781;42.292;23.146;2023-08-07T07:43:05;95148.50;;;24.91;57.61
69570;BME280;56781;42.292;23.146;2023-08-07T07:45:33;95135.59;;;24.91;56.89
69570;BME280;56781;42.292;23.146;2023-08-07T07:48:03;95127.28;;;25.02;56.11
69570;BME280;56781;42.292;23.146;2023-08-07T07:50:31;95135.41;;;25.20;53.05
69570;BME280;56781;42.292;23.146;2023-08-07T07:52:58;95148.69;;;25.25;52.24
69570;BME280;56781;42.292;23.146;2023-08-07T07:55:25;95139.94;;;25.41;55.61
69570;BME280;56781;42.292;23.146;2023-08-07T07:57:53;95140.91;;;25.65;55.80
69570;BME280;56781;42.292;23.146;2023-08-07T08:00:21;95140.53;;;25.63;54.92
69570;BME280;56781;42.292;23.146;2023-08-07T08:02:53;95141.75;;;25.06;52.27
69570;BME280;56781;42.292;23.146;2023-08-07T08:05:21;95131.72;;;25.41;52.40
69570;BME280;56781;42.292;23.146;2023-08-07T08:07:48;95133.50;;;25.58;52.07
69570;BME280;56781;42.292;23.146;2023-08-07T08:10:15;95135.53;;;25.54;52.00
69570;BME280;56781;42.292;23.146;2023-08-07T08:12:42;95113.22;;;25.52;51.36
69570;BME280;56781;42.292;23.146;2023-08-07T08:15:10;95108.22;;;25.78;51.89
69570;BME280;56781;42.292;23.146;2023-08-07T08:17:37;95136.00;;;25.83;53.63
69570;BME280;56781;42.292;23.146;2023-08-07T08:20:05;95110.31;;;26.04;51.59
69570;BME280;56781;42.292;23.146;2023-08-07T08:22:36;95130.03;;;26.26;53.20
69570;BME280;56781;42.292;23.146;2023-08-07T08:25:03;95120.81;;;26.44;54.57
69570;BME280;56781;42.292;23.146;2023-08-07T08:27:31;95112.78;;;25.95;52.87
69570;BME280;56781;42.292;23.146;2023-08-07T08:29:58;95122.22;;;25.91;49.38
69570;BME280;56781;42.292;23.146;2023-08-07T08:32:25;95125.06;;;25.80;52.31
69570;BME280;56781;42.292;23.146;2023-08-07T08:34:53;95110.97;;;26.16;52.63
69570;BME280;56781;42.292;23.146;2023-08-07T08:37:20;95105.53;;;26.12;52.44
69570;BME280;56781;42.292;23.146;2023-08-07T08:39:47;95111.59;;;25.96;51.97
69570;BME280;56781;42.292;23.146;2023-08-07T08:42:15;95092.16;;;25.42;52.63
69570;BME280;56781;42.292;23.146;2023-08-07T08:44:53;95092.44;;;25.55;52.63
69570;BME280;56781;42.292;23.146;2023-08-07T08:47:22;95088.59;;;25.83;51.97
69570;BME280;56781;42.292;23.146;2023-08-07T08:49:53;95088.44;;;25.59;52.10
69570;BME280;56781;42.292;23.146;2023-08-07T08:52:21;95076.19;;;26.05;52.09
69570;BME280;56781;42.292;23.146;2023-08-07T08:54:49;95078.47;;;26.14;51.97
69570;BME280;56781;42.292;23.146;2023-08-07T08:57:17;95093.66;;;25.88;50.60
69570;BME280;56781;42.292;23.146;2023-08-07T08:59:45;95070.28;;;25.38;50.20
69570;BME280;56781;42.292;23.146;2023-08-07T09:02:13;95073.56;;;25.98;51.06
69570;BME280;56781;42.292;23.146;2023-08-07T09:04:40;95066.94;;;25.96;52.22
69570;BME280;56781;42.292;23.146;2023-08-07T09:07:10;95067.31;;;25.98;50.48
69570;BME280;56781;42.292;23.146;2023-08-07T09:09:37;95081.53;;;25.85;50.09
69570;BME280;56781;42.292;23.146;2023-08-07T09:12:06;95071.22;;;25.97;48.48
69570;BME280;56781;42.292;23.146;2023-08-07T09:14:37;95051.34;;;26.20;49.69
69570;BME280;56781;42.292;23.146;2023-08-07T09:17:07;95062.28;;;26.50;51.40
69570;BME280;56781;42.292;23.146;2023-08-07T09:19:35;95048.84;;;26.29;49.12
69570;BME280;56781;42.292;23.146;2023-08-07T09:22:02;95061.38;;;26.61;52.59
69570;BME280;56781;42.292;23.146;2023-08-07T09:24:30;95051.25;;;26.54;52.66
69570;BME280;56781;42.292;23.146;2023-08-07T09:26:58;95057.56;;;26.55;50.64
69570;BME280;56781;42.292;23.146;2023-08-07T09:29:26;95046.03;;;26.33;52.27
69570;BME280;56781;42.292;23.146;2023-08-07T09:31:54;95040.09;;;26.38;47.62
69570;BME280;56781;42.292;23.146;2023-08-07T09:34:21;95058.06;;;26.42;52.21
69570;BME280;56781;42.292;23.146;2023-08-07T09:36:49;95052.88;;;26.21;48.11
69570;BME280;56781;42.292;23.146;2023-08-07T09:39:23;95079.50;;;26.24;51.59
69570;BME280;56781;42.292;23.146;2023-08-07T09:41:55;95079.69;;;26.09;50.23
69570;BME280;56781;42.292;23.146;2023-08-07T09:44:22;95084.56;;;25.95;51.62
69570;BME280;56781;42.292;23.146;2023-08-07T09:46:50;95063.03;;;25.55;48.55
69570;BME280;56781;42.292;23.146;2023-08-07T09:49:18;95069.94;;;25.71;50.85
69570;BME280;56781;42.292;23.146;2023-08-07T09:51:46;95073.34;;;25.78;52.25
69570;BME280;56781;42.292;23.146;2023-08-07T09:54:14;95069.88;;;25.74;50.63
69570;BME280;56781;42.292;23.146;2023-08-07T09:56:43;95066.06;;;25.68;53.72
69570;BME280;56781;42.292;23.146;2023-08-07T09:59:14;95070.66;;;25.75;50.63
69570;BME280;56781;42.292;23.146;2023-08-07T10:01:42;95059.88;;;25.60;53.13
69570;BME280;56781;42.292;23.146;2023-08-07T10:04:11;95060.84;;;25.77;51.73
69570;BME280;56781;42.292;23.146;2023-08-07T10:06:43;95087.28;;;25.98;50.59
69570;BME280;56781;42.292;23.146;2023-08-07T10:09:11;95063.13;;;25.82;47.52
69570;BME280;56781;42.292;23.146;2023-08-07T10:11:38;95052.31;;;26.06;47.37
69570;BME280;56781;42.292;23.146;2023-08-07T10:14:08;95066.41;;;26.04;51.11
69570;BME280;56781;42.292;23.146;2023-08-07T10:16:36;95062.88;;;26.35;50.74
69570;BME280;56781;42.292;23.146;2023-08-07T10:19:10;95065.94;;;26.40;49.89
69570;BME280;56781;42.292;23.146;2023-08-07T10:21:39;95055.81;;;26.06;51.88
69570;BME280;56781;42.292;23.146;2023-08-07T10:24:08;95046.06;;;26.02;49.57
69570;BME280;56781;42.292;23.146;2023-08-07T10:26:40;95049.50;;;26.09;48.99
69570;BME280;56781;42.292;23.146;2023-08-07T10:29:11;95049.06;;;26.11;51.34
69570;BME280;56781;42.292;23.146;2023-08-07T10:31:40;95023.94;;;26.43;51.70
69570;BME280;56781;42.292;23.146;2023-08-07T10:34:10;95053.97;;;26.81;50.19
69570;BME280;56781;42.292;23.146;2023-08-07T10:36:39;95039.41;;;26.84;48.77
69570;BME280;56781;42.292;23.146;2023-08-07T10:39:08;95052.47;;;27.04;49.72
69570;BME280;56781;42.292;23.146;2023-08-07T10:41:42;95010.06;;;26.54;45.86
69570;BME280;56781;42.292;23.146;2023-08-07T10:44:24;95025.75;;;26.81;47.94
69570;BME280;56781;42.292;23.146;2023-08-07T10:46:54;95005.31;;;26.58;46.18
69570;BME280;56781;42.292;23.146;2023-08-07T10:49:42;95031.56;;;26.59;45.69
69570;BME280;56781;42.292;23.146;2023-08-07T10:52:14;95021.09;;;26.50;46.34
69570;BME280;56781;42.292;23.146;2023-08-07T10:54:48;95036.66;;;26.61;46.22
69570;BME280;56781;42.292;23.146;2023-08-07T10:57:17;95043.63;;;26.65;46.33
69570;BME280;56781;42.292;23.146;2023-08-07T11:02:29;95016.97;;;26.66;46.24
69570;BME280;56781;42.292;23.146;2023-08-07T11:04:57;95004.97;;;26.80;48.85
69570;BME280;56781;42.292;23.146;2023-08-07T11:07:26;95008.72;;;27.13;50.53
69570;BME280;56781;42.292;23.146;2023-08-07T11:09:54;94994.97;;;27.13;47.36
69570;BME280;56781;42.292;23.146;2023-08-07T11:12:25;94978.41;;;27.20;49.28
69570;BME280;56781;42.292;23.146;2023-08-07T11:14:54;94981.03;;;27.04;46.00
69570;BME280;56781;42.292;23.146;2023-08-07T11:17:28;94977.91;;;27.25;48.27
69570;BME280;56781;42.292;23.146;2023-08-07T11:19:56;94954.78;;;27.23;51.63
69570;BME280;56781;42.292;23.146;2023-08-07T11:22:24;94967.25;;;27.27;48.60
69570;BME280;56781;42.292;23.146;2023-08-07T11:24:51;94962.59;;;27.24;46.80
69570;BME280;56781;42.292;23.146;2023-08-07T11:27:21;94952.38;;;27.25;44.64
69570;BME280;56781;42.292;23.146;2023-08-07T11:29:49;94978.00;;;27.42;49.52
69570;BME280;56781;42.292;23.146;2023-08-07T11:32:18;94942.09;;;27.49;45.37
69570;BME280;56781;42.292;23.146;2023-08-07T11:34:51;94971.16;;;27.50;48.75
69570;BME280;56781;42.292;23.146;2023-08-07T11:37:18;94968.53;;;27.43;48.64
69570;BME280;56781;42.292;23.146;2023-08-07T11:39:46;94961.56;;;27.58;47.00
69570;BME280;56781;42.292;23.146;2023-08-07T11:42:13;94941.91;;;27.39;47.93
69570;BME280;56781;42.292;23.146;2023-08-07T11:44:41;94950.88;;;27.60;44.37
69570;BME280;56781;42.292;23.146;2023-08-07T11:47:10;94947.22;;;27.87;46.68
69570;BME280;56781;42.292;23.146;2023-08-07T11:49:37;94960.34;;;27.99;45.33
69570;BME280;56781;42.292;23.146;2023-08-07T11:52:06;94946.84;;;28.04;43.17
69570;BME280;56781;42.292;23.146;2023-08-07T11:54:34;94944.47;;;27.87;43.92
69570;BME280;56781;42.292;23.146;2023-08-07T11:57:01;94947.31;;;27.83;40.58
69570;BME280;56781;42.292;23.146;2023-08-07T11:59:29;94930.63;;;27.90;38.47
69570;BME280;56781;42.292;23.146;2023-08-07T12:01:56;94940.91;;;28.22;38.93
69570;BME280;56781;42.292;23.146;2023-08-07T12:04:24;94924.72;;;28.08;40.36
69570;BME280;56781;42.292;23.146;2023-08-07T12:06:55;94916.97;;;27.87;44.23
69570;BME280;56781;42.292;23.146;2023-08-07T12:09:25;94908.22;;;28.08;43.63
69570;BME280;56781;42.292;23.146;2023-08-07T12:11:59;94936.97;;;28.23;40.08
69570;BME280;56781;42.292;23.146;2023-08-07T12:14:30;94911.22;;;28.14;41.16
69570;BME280;56781;42.292;23.146;2023-08-07T12:17:01;94943.34;;;28.20;42.68
69570;BME280;56781;42.292;23.146;2023-08-07T12:19:41;94919.38;;;28.01;41.66
69570;BME280;56781;42.292;23.146;2023-08-07T12:22:10;94918.84;;;27.90;40.78
69570;BME280;56781;42.292;23.146;2023-08-07T12:24:38;94925.75;;;27.42;43.92
69570;BME280;56781;42.292;23.146;2023-08-07T12:27:07;94938.34;;;27.19;45.64
69570;BME280;56781;42.292;23.146;2023-08-07T12:29:34;94918.66;;;27.01;43.66
69570;BME280;56781;42.292;23.146;2023-08-07T12:32:02;94916.63;;;27.05;42.72
69570;BME280;56781;42.292;23.146;2023-08-07T12:34:29;94909.78;;;27.13;41.82
69570;BME280;56781;42.292;23.146;2023-08-07T12:36:59;94902.69;;;26.95;46.21
69570;BME280;56781;42.292;23.146;2023-08-07T12:39:27;94921.81;;;26.79;44.93
69570;BME280;56781;42.292;23.146;2023-08-07T12:41:57;94909.16;;;26.62;47.53
69570;BME280;56781;42.292;23.146;2023-08-07T12:44:28;94902.63;;;27.19;50.44
69570;BME280;56781;42.292;23.146;2023-08-07T12:46:55;94905.25;;;27.26;45.40
69570;BME280;56781;42.292;23.146;2023-08-07T12:49:23;94905.03;;;27.37;44.04
69570;BME280;56781;42.292;23.146;2023-08-07T12:51:51;94915.69;;;27.71;45.37
69570;BME280;56781;42.292;23.146;2023-08-07T12:54:20;94897.72;;;27.67;45.91
69570;BME280;56781;42.292;23.146;2023-08-07T12:56:47;94891.09;;;27.64;45.76
69570;BME280;56781;42.292;23.146;2023-08-07T12:59:14;94899.53;;;27.73;45.88
69570;BME280;56781;42.292;23.146;2023-08-07T13:01:41;94896.13;;;27.49;44.79
69570;BME280;56781;42.292;23.146;2023-08-07T13:04:10;94911.84;;;27.49;45.23
69570;BME280;56781;42.292;23.146;2023-08-07T13:06:39;94901.28;;;27.27;45.23
69570;BME280;56781;42.292;23.146;2023-08-07T13:09:07;94897.75;;;27.47;47.16
69570;BME280;56781;42.292;23.146;2023-08-07T13:11:34;94897.50;;;27.57;44.76
69570;BME280;56781;42.292;23.146;2023-08-07T13:14:01;94885.59;;;27.64;47.93
69570;BME280;56781;42.292;23.146;2023-08-07T13:16:29;94890.16;;;27.71;49.64